sensor_id;sensor_type;location;lat;lon;timestamp;noise_LAeq;noise_LA_min;noise_LA_max;noise_LA01;noise_LA95
42701;Laerm;28316;49.504;8.526;2023-07-13T00:02:18;38.83;35.36;41.53;;
42701;Laerm;28316;49.504;8.526;2023-07-13T00:04:44;38.87;34.69;43.14;;
42701;Laerm;28316;49.504;8.526;2023-07-13T00:07:09;38.82;35.04;41.22;;
42701;Laerm;28316;49.504;8.526;2023-07-13T00:09:35;38.86;35.66;42.42;;
42701;Laerm;28316;49.504;8.526;2023-07-13T00:12:02;38.85;35.66;40.98;;
42701;Laerm;28316;49.504;8.526;2023-07-13T00:14:29;38.86;35.36;41.38;;
42701;Laerm;28316;49.504;8.526;2023-07-13T00:16:55;38.87;35.66;40.89;;
42701;Laerm;28316;49.504;8.526;2023-07-13T00:19:21;38.87;35.36;41.61;;
42701;Laerm;28316;49.504;8.526;2023-07-13T00:21:47;38.88;35.94;41.30;;
42701;Laerm;28316;49.504;8.526;2023-07-13T00:24:17;38.91;35.66;41.46;;
42701;Laerm;28316;49.504;8.526;2023-07-13T00:26:48;38.98;34.69;44.11;;
42701;Laerm;28316;49.504;8.526;2023-07-13T00:29:14;38.97;35.04;42.19;;
42701;Laerm;28316;49.504;8.526;2023-07-13T00:31:41;38.99;35.94;43.58;;
42701;Laerm;28316;49.504;8.526;2023-07-13T00:34:08;38.95;35.66;41.30;;
42701;Laerm;28316;49.504;8.526;2023-07-13T00:36:33;38.92;35.66;41.22;;
42701;Laerm;28316;49.504;8.526;2023-07-13T00:38:59;38.96;35.94;41.14;;
42701;Laerm;28316;49.504;8.526;2023-07-13T00:41:25;38.99;35.66;41.68;;
42701;Laerm;28316;49.504;8.526;2023-07-13T00:43:51;39.00;35.66;41.30;;
42701;Laerm;28316;49.504;8.526;2023-07-13T00:46:25;39.01;35.66;41.89;;
42701;Laerm;28316;49.504;8.526;2023-07-13T00:48:53;39.04;35.66;41.61;;
42701;Laerm;28316;49.504;8.526;2023-07-13T00:51:44;39.02;35.94;42.22;;
42701;Laerm;28316;49.504;8.526;2023-07-13T00:54:13;39.03;35.94;41.14;;
42701;Laerm;28316;49.504;8.526;2023-07-13T00:56:41;39.02;35.94;41.68;;
42701;Laerm;28316;49.504;8.526;2023-07-13T00:59:11;39.05;35.66;41.22;;
42701;Laerm;28316;49.504;8.526;2023-07-13T01:01:37;39.06;35.94;41.46;;
42701;Laerm;28316;49.504;8.526;2023-07-13T01:04:03;39.08;36.20;41.38;;
42701;Laerm;28316;49.504;8.526;2023-07-13T01:06:35;39.07;35.94;41.14;;
42701;Laerm;28316;49.504;8.526;2023-07-13T01:09:02;39.13;35.66;41.55;;
42701;Laerm;28316;49.504;8.526;2023-07-13T01:11:28;39.13;36.20;41.38;;
42701;Laerm;28316;49.504;8.526;2023-07-13T01:13:54;39.14;35.66;41.61;;
42701;Laerm;28316;49.504;8.526;2023-07-13T01:16:27;39.19;35.94;41.38;;
42701;Laerm;28316;49.504;8.526;2023-07-13T01:18:55;39.22;35.94;41.14;;
42701;Laerm;28316;49.504;8.526;2023-07-13T01:21:24;39.26;35.36;41.61;;
42701;Laerm;28316;49.504;8.526;2023-07-13T01:23:50;39.27;36.20;41.82;;
42701;Laerm;28316;49.504;8.526;2023-07-13T01:26:16;39.29;36.69;41.38;;
42701;Laerm;28316;49.504;8.526;2023-07-13T01:28:43;39.30;35.94;41.46;;
42701;Laerm;28316;49.504;8.526;2023-07-13T01:31:09;39.36;36.91;42.76;;
42701;Laerm;28316;49.504;8.526;2023-07-13T01:33:38;39.35;36.20;41.61;;
42701;Laerm;28316;49.504;8.526;2023-07-13T01:36:09;39.36;36.45;41.61;;
42701;Laerm;28316;49.504;8.526;2023-07-13T01:38:36;39.37;36.20;41.53;;
42701;Laerm;28316;49.504;8.526;2023-07-13T01:41:03;39.35;36.20;41.30;;
42701;Laerm;28316;49.504;8.526;2023-07-13T01:43:29;39.43;36.45;44.27;;
42701;Laerm;28316;49.504;8.526;2023-07-13T01:45:55;39.40;36.20;43.19;;
42701;Laerm;28316;49.504;8.526;2023-07-13T01:48:20;39.35;36.20;41.68;;
42701;Laerm;28316;49.504;8.526;2023-07-13T01:50:47;39.39;35.94;41.89;;
42701;Laerm;28316;49.504;8.526;2023-07-13T01:53:13;39.38;35.66;41.96;;
42701;Laerm;28316;49.504;8.526;2023-07-13T01:55:39;39.41;36.20;41.68;;
42701;Laerm;28316;49.504;8.526;2023-07-13T01:58:05;39.42;36.91;41.75;;
42701;Laerm;28316;49.504;8.526;2023-07-13T02:00:32;39.44;36.20;41.82;;
42701;Laerm;28316;49.504;8.526;2023-07-13T02:02:58;39.46;36.20;41.75;;
42701;Laerm;28316;49.504;8.526;2023-07-13T02:05:24;39.47;36.91;41.75;;
42701;Laerm;28316;49.504;8.526;2023-07-13T02:07:50;39.51;36.20;41.68;;
42701;Laerm;28316;49.504;8.526;2023-07-13T02:10:17;39.52;35.94;41.61;;
42701;Laerm;28316;49.504;8.526;2023-07-13T02:12:43;39.54;36.91;41.61;;
42701;Laerm;28316;49.504;8.526;2023-07-13T02:15:09;39.58;36.77;41.46;;
42701;Laerm;28316;49.504;8.526;2023-07-13T02:17:36;39.59;36.20;41.89;;
42701;Laerm;28316;49.504;8.526;2023-07-13T02:20:03;39.63;36.91;41.61;;
42701;Laerm;28316;49.504;8.526;2023-07-13T02:22:30;39.63;36.91;41.68;;
42701;Laerm;28316;49.504;8.526;2023-07-13T02:24:56;39.66;36.69;41.53;;
42701;Laerm;28316;49.504;8.526;2023-07-13T02:27:22;39.69;36.69;41.68;;
42701;Laerm;28316;49.504;8.526;2023-07-13T02:29:47;39.69;37.32;41.61;;
42701;Laerm;28316;49.504;8.526;2023-07-13T02:32:13;39.73;36.69;45.86;;
42701;Laerm;28316;49.504;8.526;2023-07-13T02:34:41;39.69;36.69;41.82;;
42701;Laerm;28316;49.504;8.526;2023-07-13T02:37:07;39.70;36.91;41.75;;
42701;Laerm;28316;49.504;8.526;2023-07-13T02:39:33;39.72;36.45;41.68;;
42701;Laerm;28316;49.504;8.526;2023-07-13T02:44:27;39.80;37.12;41.89;;
42701;Laerm;28316;49.504;8.526;2023-07-13T02:46:52;39.79;36.91;41.68;;
42701;Laerm;28316;49.504;8.526;2023-07-13T02:49:18;39.82;36.91;42.16;;
42701;Laerm;28316;49.504;8.526;2023-07-13T02:51:44;39.87;37.52;41.96;;
42701;Laerm;28316;49.504;8.526;2023-07-13T02:54:10;39.91;37.12;42.22;;
42701;Laerm;28316;49.504;8.526;2023-07-13T02:56:37;39.94;37.12;41.82;;
42701;Laerm;28316;49.504;8.526;2023-07-13T02:59:04;39.99;37.12;41.96;;
42701;Laerm;28316;49.504;8.526;2023-07-13T03:01:30;40.06;37.52;42.03;;
42701;Laerm;28316;49.504;8.526;2023-07-13T03:03:59;40.13;37.12;42.29;;
42701;Laerm;28316;49.504;8.526;2023-07-13T03:06:25;40.21;37.70;42.16;;
42701;Laerm;28316;49.504;8.526;2023-07-13T03:08:51;40.28;38.05;42.22;;
42701;Laerm;28316;49.504;8.526;2023-07-13T03:11:19;40.36;37.88;42.09;;
42701;Laerm;28316;49.504;8.526;2023-07-13T03:13:46;40.40;37.87;42.16;;
42701;Laerm;28316;49.504;8.526;2023-07-13T03:16:13;40.55;38.37;42.22;;
42701;Laerm;28316;49.504;8.526;2023-07-13T03:18:42;40.66;37.12;42.22;;
42701;Laerm;28316;49.504;8.526;2023-07-13T03:21:08;40.76;38.52;42.22;;
42701;Laerm;28316;49.504;8.526;2023-07-13T03:23:34;40.85;38.81;42.22;;
42701;Laerm;28316;49.504;8.526;2023-07-13T03:26:11;40.94;38.95;42.35;;
42701;Laerm;28316;49.504;8.526;2023-07-13T03:28:38;41.00;38.95;42.47;;
42701;Laerm;28316;49.504;8.526;2023-07-13T03:31:17;41.02;38.95;42.47;;
42701;Laerm;28316;49.504;8.526;2023-07-13T03:33:44;41.04;39.21;42.65;;
42701;Laerm;28316;49.504;8.526;2023-07-13T03:36:16;41.07;39.21;42.47;;
42701;Laerm;28316;49.504;8.526;2023-07-13T03:38:50;41.06;39.21;42.41;;
42701;Laerm;28316;49.504;8.526;2023-07-13T03:41:17;41.11;39.34;42.53;;
42701;Laerm;28316;49.504;8.526;2023-07-13T03:43:42;41.08;39.46;42.35;;
42701;Laerm;28316;49.504;8.526;2023-07-13T03:46:09;41.12;39.58;42.47;;
42701;Laerm;28316;49.504;8.526;2023-07-13T03:48:35;41.16;39.58;42.59;;
42701;Laerm;28316;49.504;8.526;2023-07-13T03:51:01;41.22;39.08;42.58;;
42701;Laerm;28316;49.504;8.526;2023-07-13T03:53:27;41.33;39.81;42.71;;
42701;Laerm;28316;49.504;8.526;2023-07-13T03:55:53;41.42;39.70;42.71;;
42701;Laerm;28316;49.504;8.526;2023-07-13T03:58:37;41.47;39.92;42.76;;
42701;Laerm;28316;49.504;8.526;2023-07-13T04:01:05;41.49;39.92;42.76;;
42701;Laerm;28316;49.504;8.526;2023-07-13T04:03:32;41.46;39.92;42.82;;
42701;Laerm;28316;49.504;8.526;2023-07-13T04:06:05;41.48;39.58;42.71;;
42701;Laerm;28316;49.504;8.526;2023-07-13T04:08:34;41.48;39.70;42.76;;
42701;Laerm;28316;49.504;8.526;2023-07-13T04:11:02;41.47;39.81;42.82;;
42701;Laerm;28316;49.504;8.526;2023-07-13T04:13:28;41.47;39.92;42.71;;
42701;Laerm;28316;49.504;8.526;2023-07-13T04:15:54;41.48;39.92;42.98;;
42701;Laerm;28316;49.504;8.526;2023-07-13T04:18:20;41.47;39.92;42.71;;
42701;Laerm;28316;49.504;8.526;2023-07-13T04:20:47;41.45;39.70;42.82;;
42701;Laerm;28316;49.504;8.526;2023-07-13T04:23:13;41.44;39.81;42.65;;
42701;Laerm;28316;49.504;8.526;2023-07-13T04:25:43;41.46;39.34;42.71;;
42701;Laerm;28316;49.504;8.526;2023-07-13T04:28:10;41.45;40.03;42.88;;
42701;Laerm;28316;49.504;8.526;2023-07-13T04:30:35;41.44;39.92;42.88;;
42701;Laerm;28316;49.504;8.526;2023-07-13T04:33:01;41.40;39.34;42.71;;
42701;Laerm;28316;49.504;8.526;2023-07-13T04:35:27;41.41;39.58;42.65;;
42701;Laerm;28316;49.504;8.526;2023-07-13T04:37:53;41.42;39.92;42.71;;
42701;Laerm;28316;49.504;8.526;2023-07-13T04:40:19;41.42;39.34;42.71;;
42701;Laerm;28316;49.504;8.526;2023-07-13T04:42:46;41.43;39.92;45.01;;
42701;Laerm;28316;49.504;8.526;2023-07-13T04:45:16;41.42;39.58;42.71;;
42701;Laerm;28316;49.504;8.526;2023-07-13T04:47:42;41.42;39.81;42.82;;
42701;Laerm;28316;49.504;8.526;2023-07-13T04:50:09;41.43;39.92;42.71;;
42701;Laerm;28316;49.504;8.526;2023-07-13T04:52:36;41.44;39.81;42.76;;
42701;Laerm;28316;49.504;8.526;2023-07-13T04:55:03;41.44;39.70;42.76;;
42701;Laerm;28316;49.504;8.526;2023-07-13T04:57:29;41.45;39.99;42.76;;
42701;Laerm;28316;49.504;8.526;2023-07-13T04:59:55;41.47;39.81;42.76;;
42701;Laerm;28316;49.504;8.526;2023-07-13T05:02:21;41.44;39.58;42.82;;
42701;Laerm;28316;49.504;8.526;2023-07-13T05:04:48;41.41;39.92;42.71;;
42701;Laerm;28316;49.504;8.526;2023-07-13T05:07:14;41.43;39.92;42.71;;
42701;Laerm;28316;49.504;8.526;2023-07-13T05:09:40;41.44;39.92;42.93;;
42701;Laerm;28316;49.504;8.526;2023-07-13T05:12:08;41.44;39.70;42.71;;
42701;Laerm;28316;49.504;8.526;2023-07-13T05:14:34;41.41;39.70;42.93;;
42701;Laerm;28316;49.504;8.526;2023-07-13T05:17:00;41.40;39.92;42.71;;
42701;Laerm;28316;49.504;8.526;2023-07-13T05:19:26;41.39;39.46;42.71;;
42701;Laerm;28316;49.504;8.526;2023-07-13T05:21:52;41.40;39.46;42.59;;
42701;Laerm;28316;49.504;8.526;2023-07-13T05:24:18;41.38;39.92;42.88;;
42701;Laerm;28316;49.504;8.526;2023-07-13T05:26:44;41.39;39.58;42.71;;
42701;Laerm;28316;49.504;8.526;2023-07-13T05:29:10;41.41;39.81;44.43;;
42701;Laerm;28316;49.504;8.526;2023-07-13T05:31:36;41.35;39.70;42.76;;
42701;Laerm;28316;49.504;8.526;2023-07-13T05:34:02;41.35;39.58;42.76;;
42701;Laerm;28316;49.504;8.526;2023-07-13T05:36:28;41.34;39.46;42.82;;
42701;Laerm;28316;49.504;8.526;2023-07-13T05:38:54;41.33;39.70;42.65;;
42701;Laerm;28316;49.504;8.526;2023-07-13T05:41:20;41.28;39.34;42.93;;
42701;Laerm;28316;49.504;8.526;2023-07-13T05:43:45;41.26;39.58;43.09;;
42701;Laerm;28316;49.504;8.526;2023-07-13T05:46:11;41.24;39.58;43.04;;
42701;Laerm;28316;49.504;8.526;2023-07-13T05:48:37;41.24;39.34;43.09;;
42701;Laerm;28316;49.504;8.526;2023-07-13T05:51:03;41.21;39.46;42.59;;
42701;Laerm;28316;49.504;8.526;2023-07-13T05:53:28;41.20;39.34;42.76;;
42701;Laerm;28316;49.504;8.526;2023-07-13T05:55:55;41.18;39.46;42.53;;
42701;Laerm;28316;49.504;8.526;2023-07-13T05:58:21;41.18;39.46;42.53;;
42701;Laerm;28316;49.504;8.526;2023-07-13T06:00:48;41.16;39.34;42.65;;
42701;Laerm;28316;49.504;8.526;2023-07-13T06:03:14;41.08;38.95;42.53;;
42701;Laerm;28316;49.504;8.526;2023-07-13T06:05:41;41.07;39.08;42.93;;
42701;Laerm;28316;49.504;8.526;2023-07-13T06:08:08;41.04;38.81;42.53;;
42701;Laerm;28316;49.504;8.526;2023-07-13T06:10:37;41.04;39.08;44.39;;
42701;Laerm;28316;49.504;8.526;2023-07-13T06:13:03;41.01;39.08;42.82;;
42701;Laerm;28316;49.504;8.526;2023-07-13T06:15:28;40.99;39.34;42.53;;
42701;Laerm;28316;49.504;8.526;2023-07-13T06:17:54;40.99;38.95;42.47;;
42701;Laerm;28316;49.504;8.526;2023-07-13T06:20:20;41.01;39.08;42.47;;
42701;Laerm;28316;49.504;8.526;2023-07-13T06:22:45;41.00;39.34;42.59;;
42701;Laerm;28316;49.504;8.526;2023-07-13T06:25:11;40.98;39.21;42.65;;
42701;Laerm;28316;49.504;8.526;2023-07-13T06:27:37;40.97;39.21;42.71;;
42701;Laerm;28316;49.504;8.526;2023-07-13T06:30:03;40.95;38.95;42.41;;
42701;Laerm;28316;49.504;8.526;2023-07-13T06:32:29;40.92;38.95;42.41;;
42701;Laerm;28316;49.504;8.526;2023-07-13T06:34:54;40.95;39.08;42.76;;
42701;Laerm;28316;49.504;8.526;2023-07-13T06:37:20;40.96;39.08;42.36;;
42701;Laerm;28316;49.504;8.526;2023-07-13T06:39:46;40.93;38.81;42.47;;
42701;Laerm;28316;49.504;8.526;2023-07-13T06:42:12;40.90;38.37;42.35;;
42701;Laerm;28316;49.504;8.526;2023-07-13T06:44:37;40.89;38.67;42.71;;
42701;Laerm;28316;49.504;8.526;2023-07-13T06:47:03;40.88;39.08;42.71;;
42701;Laerm;28316;49.504;8.526;2023-07-13T06:49:29;40.95;38.81;44.79;;
42701;Laerm;28316;49.504;8.526;2023-07-13T06:51:55;40.95;38.37;42.65;;
42701;Laerm;28316;49.504;8.526;2023-07-13T06:54:20;40.81;38.81;42.47;;
42701;Laerm;28316;49.504;8.526;2023-07-13T06:56:46;40.76;38.67;42.22;;
42701;Laerm;28316;49.504;8.526;2023-07-13T06:59:12;40.68;38.21;42.24;;
42701;Laerm;28316;49.504;8.526;2023-07-13T07:01:38;40.57;38.37;42.29;;
42701;Laerm;28316;49.504;8.526;2023-07-13T07:04:04;40.54;37.88;42.24;;
42701;Laerm;28316;49.504;8.526;2023-07-13T07:06:29;40.51;38.02;42.22;;
42701;Laerm;28316;49.504;8.526;2023-07-13T07:08:55;40.45;38.05;42.22;;
42701;Laerm;28316;49.504;8.526;2023-07-13T07:11:26;40.42;37.70;42.35;;
42701;Laerm;28316;49.504;8.526;2023-07-13T07:13:53;40.34;38.21;42.16;;
42701;Laerm;28316;49.504;8.526;2023-07-13T07:16:20;40.37;37.88;42.09;;
42701;Laerm;28316;49.504;8.526;2023-07-13T07:18:46;40.39;38.05;41.96;;
42701;Laerm;28316;49.504;8.526;2023-07-13T07:21:13;40.40;37.88;42.47;;
42701;Laerm;28316;49.504;8.526;2023-07-13T07:23:39;40.40;38.21;42.29;;
42701;Laerm;28316;49.504;8.526;2023-07-13T07:26:05;40.38;38.21;42.35;;
42701;Laerm;28316;49.504;8.526;2023-07-13T07:28:31;40.34;37.52;42.03;;
42701;Laerm;28316;49.504;8.526;2023-07-13T07:30:58;40.35;37.70;42.29;;
42701;Laerm;28316;49.504;8.526;2023-07-13T07:33:25;40.31;37.70;42.16;;
42701;Laerm;28316;49.504;8.526;2023-07-13T07:35:51;40.25;37.88;41.96;;
42701;Laerm;28316;49.504;8.526;2023-07-13T07:38:17;40.20;37.32;42.35;;
42701;Laerm;28316;49.504;8.526;2023-07-13T07:40:43;40.10;37.32;41.89;;
42701;Laerm;28316;49.504;8.526;2023-07-13T07:43:12;40.13;37.70;41.89;;
42701;Laerm;28316;49.504;8.526;2023-07-13T07:45:39;40.10;37.70;42.22;;
42701;Laerm;28316;49.504;8.526;2023-07-13T07:48:06;40.12;37.32;42.09;;
42701;Laerm;28316;49.504;8.526;2023-07-13T07:50:32;40.07;37.52;41.96;;
42701;Laerm;28316;49.504;8.526;2023-07-13T07:52:58;40.03;37.32;41.82;;
42701;Laerm;28316;49.504;8.526;2023-07-13T07:55:25;40.00;37.12;42.09;;
42701;Laerm;28316;49.504;8.526;2023-07-13T07:57:56;39.99;37.12;42.93;;
42701;Laerm;28316;49.504;8.526;2023-07-13T08:00:22;39.98;37.12;41.89;;
42701;Laerm;28316;49.504;8.526;2023-07-13T08:02:48;40.01;37.12;43.68;;
42701;Laerm;28316;49.504;8.526;2023-07-13T08:05:14;39.93;37.32;42.06;;
42701;Laerm;28316;49.504;8.526;2023-07-13T08:07:40;39.87;37.17;41.96;;
42701;Laerm;28316;49.504;8.526;2023-07-13T08:10:07;39.84;36.77;42.22;;
42701;Laerm;28316;49.504;8.526;2023-07-13T08:12:38;39.86;37.32;41.89;;
42701;Laerm;28316;49.504;8.526;2023-07-13T08:15:05;39.84;36.20;44.23;;
42701;Laerm;28316;49.504;8.526;2023-07-13T08:17:31;39.81;37.12;41.96;;
42701;Laerm;28316;49.504;8.526;2023-07-13T08:19:57;40.07;37.12;53.68;;
42701;Laerm;28316;49.504;8.526;2023-07-13T08:22:23;39.99;36.69;49.27;;
42701;Laerm;28316;49.504;8.526;2023-07-13T08:24:49;40.30;37.12;49.62;;
42701;Laerm;28316;49.504;8.526;2023-07-13T08:27:22;39.70;36.20;43.14;;
42701;Laerm;28316;49.504;8.526;2023-07-13T08:29:50;39.77;36.91;43.90;;
42701;Laerm;28316;49.504;8.526;2023-07-13T08:32:17;39.61;36.69;42.22;;
42701;Laerm;28316;49.504;8.526;2023-07-13T08:34:43;39.64;36.69;41.96;;
42701;Laerm;28316;49.504;8.526;2023-07-13T08:37:10;39.68;37.12;43.39;;
42701;Laerm;28316;49.504;8.526;2023-07-13T08:39:36;39.67;36.69;43.04;;
42701;Laerm;28316;49.504;8.526;2023-07-13T08:45:38;39.57;35.94;41.68;;
42701;Laerm;28316;49.504;8.526;2023-07-13T08:48:25;39.55;36.91;41.53;;
42701;Laerm;28316;49.504;8.526;2023-07-13T08:54:20;39.53;36.91;41.89;;
42701;Laerm;28316;49.504;8.526;2023-07-13T08:56:49;39.54;36.69;43.44;;
42701;Laerm;28316;49.504;8.526;2023-07-13T08:59:22;39.52;36.69;41.61;;
42701;Laerm;28316;49.504;8.526;2023-07-13T09:05:14;39.56;36.20;50.12;;
42701;Laerm;28316;49.504;8.526;2023-07-13T09:08:10;39.50;36.69;41.53;;
42701;Laerm;28316;49.504;8.526;2023-07-13T09:10:46;39.44;36.20;42.71;;
42701;Laerm;28316;49.504;8.526;2023-07-13T09:16:24;40.70;36.45;60.73;;
42701;Laerm;28316;49.504;8.526;2023-07-13T09:18:54;41.40;36.45;63.04;;
42701;Laerm;28316;49.504;8.526;2023-07-13T09:21:34;40.18;35.94;54.42;;
42701;Laerm;28316;49.504;8.526;2023-07-13T09:26:58;43.90;35.66;66.16;;
42701;Laerm;28316;49.504;8.526;2023-07-13T09:29:34;40.75;35.66;54.81;;
42701;Laerm;28316;49.504;8.526;2023-07-13T09:32:06;39.84;36.45;47.63;;
42701;Laerm;28316;49.504;8.526;2023-07-13T09:34:34;43.75;36.45;66.07;;
42701;Laerm;28316;49.504;8.526;2023-07-13T09:37:00;40.97;36.45;58.31;;
42701;Laerm;28316;49.504;8.526;2023-07-13T09:39:38;44.75;36.20;65.22;;
42701;Laerm;28316;49.504;8.526;2023-07-13T09:47:27;39.96;35.94;51.72;;
42701;Laerm;28316;49.504;8.526;2023-07-13T09:49:59;39.45;36.45;48.13;;
42701;Laerm;28316;49.504;8.526;2023-07-13T09:52:26;39.98;35.94;46.43;;
42701;Laerm;28316;49.504;8.526;2023-07-13T09:54:54;40.12;36.45;55.95;;
42701;Laerm;28316;49.504;8.526;2023-07-13T09:57:27;39.73;35.94;48.64;;
42701;Laerm;28316;49.504;8.526;2023-07-13T09:59:55;39.76;35.66;46.62;;
42701;Laerm;28316;49.504;8.526;2023-07-13T10:02:33;41.43;36.45;61.71;;
42701;Laerm;28316;49.504;8.526;2023-07-13T10:05:06;39.91;36.20;49.75;;
42701;Laerm;28316;49.504;8.526;2023-07-13T10:07:39;41.76;36.69;62.45;;
42701;Laerm;28316;49.504;8.526;2023-07-13T10:10:18;39.69;35.66;57.93;;
42701;Laerm;28316;49.504;8.526;2023-07-13T10:12:46;42.29;36.20;60.39;;
42701;Laerm;28316;49.504;8.526;2023-07-13T10:15:22;39.79;35.94;54.02;;
42701;Laerm;28316;49.504;8.526;2023-07-13T10:17:54;39.64;35.66;50.34;;
42701;Laerm;28316;49.504;8.526;2023-07-13T10:20:21;39.29;35.94;43.19;;
42701;Laerm;28316;49.504;8.526;2023-07-13T10:23:07;39.51;35.94;53.32;;
42701;Laerm;28316;49.504;8.526;2023-07-13T10:25:39;41.52;35.94;63.11;;
42701;Laerm;28316;49.504;8.526;2023-07-13T10:28:27;39.73;35.94;50.55;;
42701;Laerm;28316;49.504;8.526;2023-07-13T10:30:56;39.99;35.94;56.33;;
42701;Laerm;28316;49.504;8.526;2023-07-13T10:33:24;39.82;35.94;54.79;;
42701;Laerm;28316;49.504;8.526;2023-07-13T10:35:54;41.32;36.45;57.76;;
42701;Laerm;28316;49.504;8.526;2023-07-13T10:38:24;41.93;35.66;59.01;;
42701;Laerm;28316;49.504;8.526;2023-07-13T10:41:03;40.26;35.66;54.46;;
42701;Laerm;28316;49.504;8.526;2023-07-13T10:43:42;39.37;35.36;44.19;;
42701;Laerm;28316;49.504;8.526;2023-07-13T10:46:14;39.26;35.94;42.03;;
42701;Laerm;28316;49.504;8.526;2023-07-13T10:48:42;39.54;35.94;46.50;;
42701;Laerm;28316;49.504;8.526;2023-07-13T10:51:12;39.26;35.36;41.53;;
42701;Laerm;28316;49.504;8.526;2023-07-13T10:53:39;40.00;35.66;54.11;;
42701;Laerm;28316;49.504;8.526;2023-07-13T10:58:39;40.06;31.68;52.21;;
42701;Laerm;28316;49.504;8.526;2023-07-13T11:01:17;39.16;35.94;43.24;;
42701;Laerm;28316;49.504;8.526;2023-07-13T11:06:29;39.53;35.66;50.53;;
42701;Laerm;28316;49.504;8.526;2023-07-13T11:11:47;39.42;35.94;50.61;;
42701;Laerm;28316;49.504;8.526;2023-07-13T11:14:44;40.37;35.66;55.67;;
42701;Laerm;28316;49.504;8.526;2023-07-13T11:17:55;42.75;35.04;66.86;;
42701;Laerm;28316;49.504;8.526;2023-07-13T11:20:52;39.86;35.04;57.49;;
42701;Laerm;28316;49.504;8.526;2023-07-13T11:23:27;39.26;35.66;46.89;;
42701;Laerm;28316;49.504;8.526;2023-07-13T11:25:54;39.19;35.66;54.12;;
42701;Laerm;28316;49.504;8.526;2023-07-13T11:28:25;40.47;35.94;57.25;;
42701;Laerm;28316;49.504;8.526;2023-07-13T11:38:31;43.50;35.66;67.54;;
42701;Laerm;28316;49.504;8.526;2023-07-13T11:41:02;42.39;35.66;63.34;;
42701;Laerm;28316;49.504;8.526;2023-07-13T11:43:29;39.48;35.66;50.59;;
42701;Laerm;28316;49.504;8.526;2023-07-13T11:45:55;39.07;35.66;43.19;;
42701;Laerm;28316;49.504;8.526;2023-07-13T11:48:29;39.41;32.93;46.07;;
42701;Laerm;28316;49.504;8.526;2023-07-13T11:51:01;39.62;35.04;53.20;;
42701;Laerm;28316;49.504;8.526;2023-07-13T11:53:34;41.13;35.36;59.58;;
42701;Laerm;28316;49.504;8.526;2023-07-13T11:56:03;40.36;35.36;56.87;;
42701;Laerm;28316;49.504;8.526;2023-07-13T11:58:29;42.22;35.66;64.10;;
42701;Laerm;28316;49.504;8.526;2023-07-13T12:00:59;39.41;35.04;47.08;;
42701;Laerm;28316;49.504;8.526;2023-07-13T12:03:27;41.69;35.66;64.01;;
42701;Laerm;28316;49.504;8.526;2023-07-13T12:06:25;41.58;35.59;64.59;;
42701;Laerm;28316;49.504;8.526;2023-07-13T12:09:00;39.72;35.36;56.94;;
42701;Laerm;28316;49.504;8.526;2023-07-13T12:11:27;39.09;35.04;48.85;;
42701;Laerm;28316;49.504;8.526;2023-07-13T12:13:53;39.16;35.36;53.65;;
42701;Laerm;28316;49.504;8.526;2023-07-13T12:16:31;39.56;34.69;56.59;;
42701;Laerm;28316;49.504;8.526;2023-07-13T12:19:01;46.35;34.69;66.29;;
42701;Laerm;28316;49.504;8.526;2023-07-13T12:21:36;40.11;35.04;57.89;;
42701;Laerm;28316;49.504;8.526;2023-07-13T12:24:04;39.94;35.31;59.92;;
42701;Laerm;28316;49.504;8.526;2023-07-13T12:26:31;40.52;34.69;56.59;;
42701;Laerm;28316;49.504;8.526;2023-07-13T12:29:01;39.43;34.31;48.37;;
42701;Laerm;28316;49.504;8.526;2023-07-13T12:31:41;45.35;35.36;68.69;;
42701;Laerm;28316;49.504;8.526;2023-07-13T12:34:14;38.86;35.36;46.38;;
42701;Laerm;28316;49.504;8.526;2023-07-13T12:37:01;41.46;35.36;59.41;;
42701;Laerm;28316;49.504;8.526;2023-07-13T12:39:46;42.25;34.69;65.86;;
42701;Laerm;28316;49.504;8.526;2023-07-13T12:45:25;40.78;35.36;60.38;;
42701;Laerm;28316;49.504;8.526;2023-07-13T12:47:58;38.97;35.36;44.43;;
42701;Laerm;28316;49.504;8.526;2023-07-13T12:50:49;40.55;35.66;55.91;;
42701;Laerm;28316;49.504;8.526;2023-07-13T12:53:28;39.47;35.36;55.02;;
42701;Laerm;28316;49.504;8.526;2023-07-13T12:56:02;42.49;35.36;62.43;;
42701;Laerm;28316;49.504;8.526;2023-07-13T12:58:35;43.01;35.36;63.22;;
42701;Laerm;28316;49.504;8.526;2023-07-13T13:01:03;44.06;34.69;63.00;;
42701;Laerm;28316;49.504;8.526;2023-07-13T13:03:46;43.84;35.66;63.34;;
42701;Laerm;28316;49.504;8.526;2023-07-13T13:08:58;40.12;35.04;54.26;;
42701;Laerm;28316;49.504;8.526;2023-07-13T13:11:27;43.05;35.36;63.65;;
42701;Laerm;28316;49.504;8.526;2023-07-13T13:13:53;38.85;35.04;47.77;;
42701;Laerm;28316;49.504;8.526;2023-07-13T13:16:31;41.23;35.66;64.81;;
42701;Laerm;28316;49.504;8.526;2023-07-13T13:19:13;39.70;35.36;52.70;;
42701;Laerm;28316;49.504;8.526;2023-07-13T13:21:40;39.19;35.66;47.36;;
42701;Laerm;28316;49.504;8.526;2023-07-13T13:24:18;41.46;35.36;61.82;;
42701;Laerm;28316;49.504;8.526;2023-07-13T13:26:46;43.97;35.04;65.56;;
42701;Laerm;28316;49.504;8.526;2023-07-13T13:29:15;42.40;35.04;63.46;;
42701;Laerm;28316;49.504;8.526;2023-07-13T13:31:42;39.22;34.31;51.89;;
42701;Laerm;28316;49.504;8.526;2023-07-13T13:34:12;41.63;35.36;63.17;;
42701;Laerm;28316;49.504;8.526;2023-07-13T13:36:40;39.82;35.04;51.57;;
42701;Laerm;28316;49.504;8.526;2023-07-13T13:39:21;38.79;35.36;44.87;;
42701;Laerm;28316;49.504;8.526;2023-07-13T13:41:50;39.04;35.36;46.69;;
42701;Laerm;28316;49.504;8.526;2023-07-13T13:44:17;38.91;35.36;43.58;;
42701;Laerm;28316;49.504;8.526;2023-07-13T13:46:48;39.46;35.04;53.30;;
42701;Laerm;28316;49.504;8.526;2023-07-13T13:49:20;39.03;35.04;45.28;;
42701;Laerm;28316;49.504;8.526;2023-07-13T13:51:47;39.18;34.69;50.26;;
42701;Laerm;28316;49.504;8.526;2023-07-13T13:54:14;38.85;35.36;43.58;;
42701;Laerm;28316;49.504;8.526;2023-07-13T13:56:47;39.74;35.04;55.57;;
42701;Laerm;28316;49.504;8.526;2023-07-13T13:59:14;39.18;35.04;50.05;;
42701;Laerm;28316;49.504;8.526;2023-07-13T14:01:44;39.22;35.94;46.15;;
42701;Laerm;28316;49.504;8.526;2023-07-13T14:04:21;39.14;35.36;49.08;;
42701;Laerm;28316;49.504;8.526;2023-07-13T14:06:48;40.74;35.04;59.36;;
42701;Laerm;28316;49.504;8.526;2023-07-13T14:09:19;38.82;34.69;43.58;;
42701;Laerm;28316;49.504;8.526;2023-07-13T14:11:47;38.99;34.69;45.72;;
42701;Laerm;28316;49.504;8.526;2023-07-13T14:14:20;39.38;35.36;49.03;;
42701;Laerm;28316;49.504;8.526;2023-07-13T14:16:48;39.59;35.36;53.95;;
42701;Laerm;28316;49.504;8.526;2023-07-13T14:19:19;40.23;35.04;58.52;;
42701;Laerm;28316;49.504;8.526;2023-07-13T14:21:45;38.71;35.04;43.86;;
42701;Laerm;28316;49.504;8.526;2023-07-13T14:24:13;38.90;34.69;43.49;;
42701;Laerm;28316;49.504;8.526;2023-07-13T14:26:40;39.17;35.36;52.17;;
42701;Laerm;28316;49.504;8.526;2023-07-13T14:29:16;40.86;34.69;60.33;;
42701;Laerm;28316;49.504;8.526;2023-07-13T14:31:43;41.11;35.66;60.35;;
42701;Laerm;28316;49.504;8.526;2023-07-13T14:34:13;41.22;35.04;60.26;;
42701;Laerm;28316;49.504;8.526;2023-07-13T14:36:43;39.43;35.04;55.19;;
42701;Laerm;28316;49.504;8.526;2023-07-13T14:39:20;39.40;35.66;53.46;;
42701;Laerm;28316;49.504;8.526;2023-07-13T14:41:55;39.47;33.90;56.44;;